Airfield :
LOGIN :

Register | Disclaimer

   EN    FR    IT 

 










Legend :    VFR   Marginal VFR   IFR   Intensive IFR   Very Intensive IFR
Visi :
Ceiling :
>= 8 km
>= 3000ft
5 to 8 km
1000 to 3000 ft
1500m to 5 km
500 to 1000 ft
800 to 1500m
200 to 500 ft
< 800m
< 200 ft
Symbols :   Thunderstorms  Fog  Heavy snow  Heavy precipitations  Wind > 20 kt
SIGMETs :     Misc.  Thunderstorms  Icing  Turbulence  Mountain Waves  Volcanic Ashes






- Airport Elevation : 782 ft
- IATA code : BGY


LIME - Orio al Serio International - Bergamo

CURRENT METAR :
  • 052050Z AUTO 11007KT 9999 BKN032/// 04/M01 Q1032

EXPIRED METARs :
  • 052020Z AUTO 11008KT 9999 BKN032/// 04/M01 Q1032
  • 051950Z 10007KT 9999 BKN030 05/00 Q1032 NOSIG
  • 051920Z 11010KT 9999 BKN040 05/00 Q1032 NOSIG
  • 051850Z 12008KT 9999 BKN030 05/00 Q1031 NOSIG
  • 051820Z 12007KT 9999 BKN035 05/M00 Q1031 NOSIG

TAF TAF LIME
Valid from the 05 at 18:00 until the 06 at 18:00 UTC


051700Z 0518/0618 11010KT 9999 BKN030
BECMG 0520/0522 VRB05KT
BECMG 0609/0611 16010KT
BECMG 0615/0617 10006KT



MET'MAP, your aeronautical weather chart ! - Copyright ORBIFLY December 2007 - Disclaimer

ORBIFLY MET'MAP TEAM :

Programming & Development : Alexandra Zaïnal
Original concept : Baudouin d'Aumeries
Technical & hardware support : Manuel Goepfert
Assistance : Marc-Olivier Méhu




SOURCES & CREDITS :

   NOAA